createdAt,value
2018-06-15T00:00:24.364Z,99.90
2018-06-15T00:02:58.119Z,99.90
2018-06-15T00:05:26.300Z,99.90
2018-06-15T00:07:54.490Z,99.90
2018-06-15T00:10:22.701Z,99.90
2018-06-15T00:12:50.864Z,99.90
2018-06-15T00:15:19.048Z,99.90
2018-06-15T00:17:47.230Z,99.90
2018-06-15T00:20:15.414Z,99.90
2018-06-15T00:22:43.581Z,99.90
2018-06-15T00:25:11.928Z,99.90
2018-06-15T00:27:40.103Z,99.90
2018-06-15T00:30:08.494Z,99.90
2018-06-15T00:32:36.664Z,99.90
2018-06-15T00:35:04.969Z,99.90
2018-06-15T00:37:33.144Z,99.90
2018-06-15T00:40:01.363Z,99.90
2018-06-15T00:42:29.541Z,99.90
2018-06-15T00:44:57.717Z,99.90
2018-06-15T00:47:25.904Z,99.90
2018-06-15T00:49:54.093Z,99.90
2018-06-15T00:52:22.267Z,99.90
2018-06-15T00:54:50.437Z,99.90
2018-06-15T00:57:30.232Z,99.90
2018-06-15T00:59:58.415Z,99.90
2018-06-15T01:02:26.593Z,99.90
2018-06-15T01:04:54.834Z,99.90
2018-06-15T01:07:23.124Z,99.90
2018-06-15T01:09:51.303Z,99.90
2018-06-15T01:12:19.490Z,99.90
2018-06-15T01:14:47.672Z,99.90
2018-06-15T01:17:15.857Z,99.90
2018-06-15T01:19:44.028Z,99.90
2018-06-15T01:22:12.200Z,99.90
2018-06-15T01:24:40.381Z,99.90
2018-06-15T01:27:08.551Z,99.90
2018-06-15T01:29:36.736Z,99.90
2018-06-15T01:32:04.916Z,99.90
2018-06-15T01:34:33.140Z,99.90
2018-06-15T01:37:01.424Z,99.90
2018-06-15T01:39:29.600Z,99.90
2018-06-15T01:41:57.773Z,99.90
2018-06-15T01:44:25.948Z,99.90
2018-06-15T01:46:54.129Z,99.90
2018-06-15T01:49:22.312Z,99.90
2018-06-15T01:51:50.492Z,99.90
2018-06-15T01:54:18.664Z,99.90
2018-06-15T01:56:46.844Z,99.90
2018-06-15T01:59:15.176Z,99.90
2018-06-15T02:01:43.348Z,99.90
2018-06-15T02:04:11.548Z,99.90
2018-06-15T02:06:39.728Z,99.70
2018-06-15T02:09:08.780Z,99.00
2018-06-15T02:11:36.955Z,98.60
2018-06-15T02:14:05.544Z,98.20
2018-06-15T02:16:33.726Z,98.20
2018-06-15T02:19:01.928Z,98.20
2018-06-15T02:21:30.115Z,98.50
2018-06-15T02:23:58.289Z,98.80
2018-06-15T02:26:26.554Z,99.00
2018-06-15T02:28:54.725Z,99.30
2018-06-15T02:31:22.916Z,99.40
2018-06-15T02:33:51.097Z,99.10
2018-06-15T02:36:19.276Z,99.20
2018-06-15T02:38:47.455Z,99.00
2018-06-15T02:41:15.620Z,98.80
2018-06-15T02:43:43.797Z,98.80
2018-06-15T02:46:12.053Z,99.00
2018-06-15T02:48:40.225Z,99.50
2018-06-15T02:51:08.414Z,99.30
2018-06-15T02:53:36.621Z,99.60
2018-06-15T02:56:04.816Z,99.60
2018-06-15T02:58:32.993Z,99.50
2018-06-15T03:01:01.175Z,98.80
2018-06-15T03:03:29.356Z,99.20
2018-06-15T03:05:57.539Z,99.20
2018-06-15T03:08:25.709Z,99.50
2018-06-15T03:10:53.889Z,99.50
2018-06-15T03:13:22.065Z,99.50
2018-06-15T03:15:50.239Z,99.60
2018-06-15T03:18:18.422Z,99.60
2018-06-15T03:20:46.705Z,99.90
2018-06-15T03:23:14.868Z,99.90
2018-06-15T03:25:43.058Z,99.90
2018-06-15T03:28:11.240Z,99.90
2018-06-15T03:30:39.409Z,99.90
2018-06-15T03:33:07.596Z,99.90
2018-06-15T03:35:35.797Z,99.90
2018-06-15T03:38:04.001Z,99.90
2018-06-15T03:40:32.196Z,99.90
2018-06-15T03:43:00.372Z,99.90
2018-06-15T03:45:28.544Z,99.90
2018-06-15T03:47:56.814Z,99.90
2018-06-15T03:50:24.996Z,99.90
2018-06-15T03:52:53.577Z,99.90
2018-06-15T03:55:21.767Z,99.90
2018-06-15T03:57:49.961Z,99.90
2018-06-15T04:00:18.136Z,99.90
2018-06-15T04:02:46.318Z,99.90
2018-06-15T04:05:14.568Z,99.90
2018-06-15T04:07:42.786Z,99.90
2018-06-15T04:10:10.928Z,99.90
2018-06-15T04:12:39.100Z,99.90
2018-06-15T04:15:07.304Z,99.90
2018-06-15T04:17:35.476Z,99.90
2018-06-15T04:20:03.663Z,99.90
2018-06-15T04:22:31.832Z,99.90
2018-06-15T04:25:00.478Z,99.90
2018-06-15T04:27:28.645Z,99.90
2018-06-15T04:29:56.815Z,99.90
2018-06-15T04:32:25.174Z,99.90
2018-06-15T04:34:53.397Z,99.90
2018-06-15T04:37:21.697Z,99.90
2018-06-15T04:39:49.855Z,99.90
2018-06-15T04:42:18.037Z,99.90
2018-06-15T04:44:46.214Z,99.90
2018-06-15T04:47:14.400Z,99.90
2018-06-15T04:49:42.580Z,99.90
2018-06-15T04:52:10.764Z,99.90
2018-06-15T04:54:38.948Z,99.90
2018-06-15T04:57:07.120Z,99.90
2018-06-15T04:59:35.301Z,99.50
2018-06-15T05:04:31.465Z,98.70
2018-06-15T05:06:59.758Z,98.30
2018-06-15T05:09:27.928Z,97.90
2018-06-15T05:11:56.101Z,97.60
2018-06-15T05:14:24.279Z,97.60
2018-06-15T05:16:52.468Z,97.00
2018-06-15T05:19:20.684Z,96.40
2018-06-15T05:21:48.870Z,96.00
2018-06-15T05:26:45.038Z,95.30
2018-06-15T05:29:13.237Z,95.10
2018-06-15T05:31:41.425Z,94.90
2018-06-15T05:34:09.596Z,94.50
2018-06-15T05:36:37.796Z,92.90
2018-06-15T05:39:08.361Z,86.70
2018-06-15T05:41:36.533Z,81.20
2018-06-15T05:44:04.737Z,72.90
2018-06-15T05:46:32.917Z,65.70
2018-06-15T05:49:01.096Z,63.00
2018-06-15T05:51:29.284Z,59.50
2018-06-15T05:53:57.616Z,55.90
2018-06-15T05:56:25.792Z,54.60
2018-06-15T05:58:53.987Z,53.10
2018-06-15T06:01:22.265Z,52.90
2018-06-15T06:03:50.447Z,53.40
2018-06-15T06:06:18.638Z,54.60
2018-06-15T06:08:46.814Z,53.30
2018-06-15T06:11:14.996Z,50.20
2018-06-15T06:13:43.189Z,54.80
2018-06-15T06:16:11.367Z,52.60
2018-06-15T06:18:39.541Z,54.00
2018-06-15T06:21:07.717Z,53.10
2018-06-15T06:23:35.891Z,55.90
2018-06-15T06:26:04.070Z,55.00
2018-06-15T06:28:32.293Z,55.00
2018-06-15T06:31:00.468Z,55.40
2018-06-15T06:33:28.660Z,55.70
2018-06-15T06:35:56.847Z,56.60
2018-06-15T06:38:25.042Z,53.00
2018-06-15T06:40:53.216Z,52.80
2018-06-15T06:43:21.412Z,52.40
2018-06-15T06:48:17.776Z,53.20
2018-06-15T06:50:45.974Z,55.00
2018-06-15T06:53:14.206Z,54.40
2018-06-15T06:55:42.428Z,56.10
2018-06-15T06:58:10.776Z,57.50
2018-06-15T07:00:38.964Z,56.30
2018-06-15T07:03:07.141Z,55.50
2018-06-15T07:08:03.276Z,54.80
2018-06-15T07:10:31.441Z,52.60
2018-06-15T07:12:59.656Z,52.60
2018-06-15T07:15:27.833Z,52.50
2018-06-15T07:17:56.009Z,52.80
2018-06-15T07:20:24.189Z,52.80
2018-06-15T07:22:52.673Z,53.90
2018-06-15T07:25:20.855Z,53.10
2018-06-15T07:27:49.398Z,53.10
2018-06-15T07:30:17.580Z,55.00
2018-06-15T07:32:45.764Z,55.80
2018-06-15T07:35:13.960Z,56.20
2018-06-15T07:37:42.136Z,55.70
2018-06-15T07:40:10.318Z,56.30
2018-06-15T07:42:38.489Z,55.50
2018-06-15T07:45:06.733Z,56.50
2018-06-15T07:47:34.924Z,55.50
2018-06-15T07:50:03.121Z,54.40
2018-06-15T07:52:31.285Z,54.40
2018-06-15T07:54:59.466Z,54.40
2018-06-15T07:57:27.660Z,53.30
2018-06-15T07:59:55.863Z,55.60
2018-06-15T08:02:24.040Z,54.20
2018-06-15T08:04:52.218Z,54.80
2018-06-15T08:07:20.406Z,54.70
2018-06-15T08:09:48.582Z,54.50
2018-06-15T08:12:16.753Z,54.70
2018-06-15T08:14:44.936Z,53.40
2018-06-15T08:17:13.109Z,52.40
2018-06-15T08:19:42.104Z,53.20
2018-06-15T08:22:10.276Z,52.60
2018-06-15T08:24:38.465Z,51.60
2018-06-15T08:27:06.698Z,52.80
2018-06-15T08:29:34.839Z,50.60
2018-06-15T08:32:03.080Z,49.90
2018-06-15T08:34:31.251Z,47.30
2018-06-15T08:36:59.426Z,48.30
2018-06-15T08:39:27.604Z,48.40
2018-06-15T08:41:55.792Z,48.00
2018-06-15T08:44:23.976Z,47.50
2018-06-15T08:46:52.161Z,47.80
2018-06-15T08:49:20.344Z,48.80
2018-06-15T08:51:48.516Z,48.80
2018-06-15T08:54:16.693Z,49.70
2018-06-15T08:56:44.862Z,47.30
2018-06-15T08:59:13.045Z,47.10
2018-06-15T09:01:41.239Z,44.80
2018-06-15T09:04:09.404Z,46.10
2018-06-15T09:06:37.577Z,48.10
2018-06-15T09:09:07.273Z,47.20
2018-06-15T09:11:35.460Z,45.70
2018-06-15T09:14:03.644Z,49.20
2018-06-15T09:16:31.822Z,49.40
2018-06-15T09:18:59.997Z,46.20
2018-06-15T09:21:28.169Z,47.80
2018-06-15T09:26:24.336Z,46.00
2018-06-15T09:28:52.512Z,47.60
2018-06-15T09:31:20.680Z,45.50
2018-06-15T09:33:48.865Z,46.90
2018-06-15T09:36:17.045Z,48.50
2018-06-15T09:38:45.257Z,46.10
2018-06-15T09:41:13.437Z,47.00
2018-06-15T09:43:41.608Z,46.50
2018-06-15T09:46:09.820Z,45.30
2018-06-15T09:48:41.913Z,43.70
2018-06-15T09:51:10.349Z,45.50
2018-06-15T09:53:38.541Z,45.30
2018-06-15T10:01:08.090Z,45.50
2018-06-15T10:03:36.708Z,45.00
2018-06-15T10:06:04.906Z,45.10
2018-06-15T10:08:33.668Z,45.50
2018-06-15T10:11:01.841Z,45.40
2018-06-15T10:13:30.097Z,45.80
2018-06-15T10:15:58.272Z,48.30
2018-06-15T10:18:26.444Z,46.10
2018-06-15T10:20:55.000Z,43.90
2018-06-15T10:23:23.180Z,44.00
2018-06-15T10:25:51.353Z,44.10
2018-06-15T10:28:19.532Z,45.40
2018-06-15T10:30:47.700Z,44.60
2018-06-15T10:33:15.881Z,44.20
2018-06-15T10:35:44.113Z,45.00
2018-06-15T10:38:12.296Z,44.00
2018-06-15T10:40:40.471Z,42.90
2018-06-15T10:43:08.644Z,42.40
2018-06-15T10:45:36.878Z,43.00
2018-06-15T10:48:05.011Z,42.30
2018-06-15T10:50:33.185Z,43.80
2018-06-15T10:53:01.360Z,42.60
2018-06-15T10:55:29.537Z,43.10
2018-06-15T10:57:57.716Z,42.60
2018-06-15T11:00:25.893Z,42.20
2018-06-15T11:02:54.060Z,44.10
2018-06-15T11:05:22.247Z,43.70
2018-06-15T11:07:50.424Z,43.40
2018-06-15T11:10:18.618Z,41.30
2018-06-15T11:15:14.801Z,42.40
2018-06-15T11:17:42.975Z,41.20
2018-06-15T11:20:11.156Z,41.90
2018-06-15T11:22:39.337Z,41.90
2018-06-15T11:25:07.513Z,42.30
2018-06-15T11:27:35.688Z,41.10
2018-06-15T11:30:04.021Z,41.10
2018-06-15T11:32:32.202Z,42.10
2018-06-15T11:35:00.380Z,41.10
2018-06-15T11:37:28.562Z,41.10
2018-06-15T11:39:56.751Z,42.80
2018-06-15T11:42:25.112Z,42.70
2018-06-15T11:44:53.584Z,43.50
2018-06-15T11:49:49.705Z,41.30
2018-06-15T11:52:17.885Z,42.30
2018-06-15T11:54:46.068Z,41.10
2018-06-15T11:57:14.248Z,43.00
2018-06-15T12:02:10.365Z,41.10
2018-06-15T12:04:38.771Z,41.80
2018-06-15T12:07:07.020Z,41.60
2018-06-15T12:09:35.197Z,42.40
2018-06-15T12:12:03.432Z,42.50
2018-06-15T12:14:31.602Z,40.00
2018-06-15T12:16:59.778Z,40.70
2018-06-15T12:19:27.961Z,40.30
2018-06-15T12:21:56.145Z,41.50
2018-06-15T12:24:24.420Z,41.10
2018-06-15T12:26:52.597Z,40.90
2018-06-15T12:29:20.775Z,40.30
2018-06-15T12:31:48.948Z,41.00
2018-06-15T12:34:17.144Z,42.80
2018-06-15T12:36:45.301Z,41.40
2018-06-15T12:39:13.485Z,42.30
2018-06-15T12:41:41.664Z,42.30
2018-06-15T12:44:09.840Z,42.40
2018-06-15T12:46:38.021Z,42.80
2018-06-15T12:49:06.438Z,40.50
2018-06-15T12:54:02.711Z,42.70
2018-06-15T12:56:30.881Z,42.60
2018-06-15T12:58:59.053Z,42.80
2018-06-15T13:01:27.240Z,41.50
2018-06-15T13:03:55.416Z,41.50
2018-06-15T13:06:23.594Z,41.30
2018-06-15T13:08:51.779Z,40.80
2018-06-15T13:11:19.961Z,40.60
2018-06-15T13:13:48.132Z,43.60
2018-06-15T13:16:16.304Z,40.70
2018-06-15T13:18:44.568Z,40.00
2018-06-15T13:21:12.752Z,41.00
2018-06-15T13:23:40.948Z,40.10
2018-06-15T13:26:09.129Z,41.30
2018-06-15T13:28:37.365Z,40.60
2018-06-15T13:31:05.703Z,42.00
2018-06-15T13:33:33.877Z,41.20
2018-06-15T13:36:02.060Z,40.30
2018-06-15T13:40:58.204Z,42.30
2018-06-15T13:48:22.298Z,40.80
2018-06-15T13:50:50.476Z,41.00
2018-06-15T13:53:18.649Z,42.30
2018-06-15T13:55:46.828Z,40.80
2018-06-15T13:58:15.005Z,42.30
2018-06-15T14:00:43.512Z,42.20
2018-06-15T14:03:12.090Z,41.30
2018-06-15T14:08:08.240Z,42.10
2018-06-15T14:10:36.430Z,41.00
2018-06-15T14:13:04.756Z,40.30
2018-06-15T14:15:32.944Z,40.20
2018-06-15T14:20:30.026Z,42.60
2018-06-15T14:25:26.140Z,42.20
2018-06-15T14:27:54.320Z,43.60
2018-06-15T14:30:22.492Z,41.60
2018-06-15T14:32:50.707Z,42.20
2018-06-15T14:35:18.856Z,42.20
2018-06-15T14:37:47.029Z,42.20
2018-06-15T14:40:15.200Z,43.70
2018-06-15T14:42:43.381Z,44.20
2018-06-15T14:45:11.556Z,43.90
2018-06-15T14:47:39.775Z,43.30
2018-06-15T14:50:07.952Z,44.80
2018-06-15T14:52:36.130Z,43.80
2018-06-15T14:55:04.329Z,43.30
2018-06-15T14:57:32.648Z,43.70
2018-06-15T15:02:28.804Z,43.10
2018-06-15T15:04:56.984Z,43.60
2018-06-15T15:07:25.271Z,43.60
2018-06-15T15:09:53.449Z,42.90
2018-06-15T15:12:21.624Z,42.50
2018-06-15T15:14:49.803Z,43.20
2018-06-15T15:17:17.980Z,44.00
2018-06-15T15:19:46.159Z,45.70
2018-06-15T15:22:14.349Z,44.60
2018-06-15T15:24:42.524Z,44.20
2018-06-15T15:27:10.700Z,43.90
2018-06-15T15:29:38.883Z,45.20
2018-06-15T15:32:07.067Z,45.10
2018-06-15T15:34:35.251Z,45.10
2018-06-15T15:37:03.440Z,44.80
2018-06-15T15:39:31.625Z,45.00
2018-06-15T15:44:27.760Z,44.80
2018-06-15T15:46:55.961Z,44.70
2018-06-15T15:49:24.247Z,45.70
2018-06-15T15:51:52.424Z,45.50
2018-06-15T15:54:20.625Z,45.30
2018-06-15T15:56:48.813Z,44.10
2018-06-15T15:59:17.000Z,44.90
2018-06-15T16:01:45.184Z,45.80
2018-06-15T16:04:13.353Z,46.50
2018-06-15T16:06:41.536Z,46.20
2018-06-15T16:09:10.260Z,44.30
2018-06-15T16:11:38.448Z,44.60
2018-06-15T16:14:06.889Z,44.90
2018-06-15T16:19:03.045Z,44.90
2018-06-15T16:21:31.222Z,44.00
2018-06-15T16:23:59.488Z,44.30
2018-06-15T16:28:55.684Z,44.50
2018-06-15T16:31:23.884Z,43.40
2018-06-15T16:33:52.102Z,43.50
2018-06-15T16:36:20.285Z,43.00
2018-06-15T16:38:48.470Z,43.20
2018-06-15T16:41:16.649Z,43.20
2018-06-15T16:43:44.880Z,42.90
2018-06-15T16:48:41.465Z,44.20
2018-06-15T16:51:09.929Z,43.90
2018-06-15T16:53:38.112Z,43.90
2018-06-15T16:56:06.471Z,44.20
2018-06-15T16:58:34.643Z,45.30
2018-06-15T17:01:02.828Z,45.00
2018-06-15T17:03:31.005Z,46.00
2018-06-15T17:05:59.181Z,45.60
2018-06-15T17:08:27.375Z,46.20
2018-06-15T17:10:55.552Z,46.50
2018-06-15T17:13:23.732Z,47.10
2018-06-15T17:15:51.913Z,46.90
2018-06-15T17:18:20.088Z,46.90
2018-06-15T17:20:48.268Z,47.20
2018-06-15T17:23:16.528Z,47.50
2018-06-15T17:25:44.705Z,47.90
2018-06-15T17:28:12.878Z,48.80
2018-06-15T17:30:41.064Z,48.70
2018-06-15T17:33:09.244Z,48.80
2018-06-15T17:35:37.433Z,48.60
2018-06-15T17:38:05.632Z,49.10
2018-06-15T17:40:33.796Z,49.40
2018-06-15T17:43:02.031Z,48.30
2018-06-15T17:45:30.215Z,48.80
2018-06-15T17:47:58.402Z,48.70
2018-06-15T17:50:26.583Z,48.30
2018-06-15T17:52:54.760Z,48.50
2018-06-15T17:55:22.964Z,49.00
2018-06-15T17:57:51.178Z,48.80
2018-06-15T18:00:19.356Z,49.80
2018-06-15T18:02:47.533Z,49.50
2018-06-15T18:05:15.720Z,49.80
2018-06-15T18:07:43.905Z,50.10
2018-06-15T18:10:12.085Z,50.80
2018-06-15T18:12:40.272Z,50.10
2018-06-15T18:15:08.460Z,50.40
2018-06-15T18:17:36.683Z,50.70
2018-06-15T18:20:05.137Z,50.90
2018-06-15T18:22:33.320Z,51.10
2018-06-15T18:25:01.512Z,51.70
2018-06-15T18:27:29.688Z,51.30
2018-06-15T18:29:57.869Z,51.30
2018-06-15T18:32:26.041Z,51.50
2018-06-15T18:34:54.228Z,51.70
2018-06-15T18:37:22.408Z,51.80
2018-06-15T18:39:50.592Z,52.20
2018-06-15T18:42:18.797Z,52.00
2018-06-15T18:44:46.977Z,52.10
2018-06-15T18:47:15.187Z,52.10
2018-06-15T18:49:43.360Z,52.50
2018-06-15T18:52:11.541Z,53.10
2018-06-15T18:54:39.764Z,53.40
2018-06-15T18:57:07.892Z,53.80
2018-06-15T18:59:36.337Z,53.80
2018-06-15T19:02:04.717Z,54.50
2018-06-15T19:04:32.909Z,54.70
2018-06-15T19:07:01.092Z,55.20
2018-06-15T19:09:29.288Z,55.90
2018-06-15T19:11:57.492Z,56.50
2018-06-15T19:14:25.676Z,56.80
2018-06-15T19:16:53.863Z,57.30
2018-06-15T19:21:50.038Z,58.10
2018-06-15T19:24:18.221Z,58.60
2018-06-15T19:26:46.530Z,59.10
2018-06-15T19:29:14.685Z,59.80
2018-06-15T19:31:42.856Z,59.90
2018-06-15T19:34:11.037Z,60.80
2018-06-15T19:36:39.220Z,61.10
2018-06-15T19:39:08.065Z,61.50
2018-06-15T19:41:36.437Z,61.90
2018-06-15T19:44:04.623Z,62.30
2018-06-15T19:46:32.918Z,63.10
2018-06-15T19:49:01.120Z,63.80
2018-06-15T19:51:29.345Z,65.20
2018-06-15T19:53:57.577Z,66.40
2018-06-15T19:56:25.847Z,67.50
2018-06-15T19:58:54.075Z,69.40
2018-06-15T20:01:22.344Z,70.70
2018-06-15T20:03:50.520Z,71.70
2018-06-15T20:06:18.713Z,72.30
2018-06-15T20:08:46.897Z,72.90
2018-06-15T20:11:15.069Z,73.20
2018-06-15T20:13:43.284Z,73.20
2018-06-15T20:16:11.467Z,74.70
2018-06-15T20:18:39.677Z,77.10
2018-06-15T20:23:35.878Z,79.60
2018-06-15T20:26:04.097Z,80.20
2018-06-15T20:28:32.277Z,81.10
2018-06-15T20:31:00.493Z,81.80
2018-06-15T20:33:28.640Z,83.00
2018-06-15T20:35:56.828Z,84.00
2018-06-15T20:38:24.996Z,85.10
2018-06-15T20:40:53.181Z,86.70
2018-06-15T20:43:21.368Z,88.10
2018-06-15T20:45:49.552Z,89.00
2018-06-15T20:48:17.732Z,89.20
2018-06-15T20:50:45.917Z,89.20
2018-06-15T20:53:14.096Z,89.50
2018-06-15T20:55:42.273Z,90.30
2018-06-15T20:58:10.468Z,90.50
2018-06-15T21:00:38.641Z,90.90
2018-06-15T21:03:06.822Z,90.80
2018-06-15T21:05:35.002Z,91.10
2018-06-15T21:08:03.208Z,91.50
2018-06-15T21:10:31.380Z,91.60
2018-06-15T21:12:59.596Z,92.20
2018-06-15T21:15:27.777Z,92.70
2018-06-15T21:17:55.957Z,92.80
2018-06-15T21:22:52.133Z,93.40
2018-06-15T21:25:20.421Z,93.00
2018-06-15T21:27:48.596Z,93.40
2018-06-15T21:30:17.157Z,93.40
2018-06-15T21:32:45.359Z,93.60
2018-06-15T21:35:13.548Z,93.60
2018-06-15T21:37:41.723Z,93.90
2018-06-15T21:40:09.984Z,94.00
2018-06-15T21:42:38.199Z,94.10
2018-06-15T21:45:06.362Z,94.30
2018-06-15T21:47:34.681Z,94.80
2018-06-15T21:50:02.863Z,94.80
2018-06-15T21:52:31.041Z,94.90
2018-06-15T21:54:59.221Z,95.20
2018-06-15T21:57:27.420Z,95.10
2018-06-15T21:59:55.596Z,95.40
2018-06-15T22:02:23.768Z,95.60
2018-06-15T22:04:52.000Z,95.70
2018-06-15T22:07:20.154Z,95.60
2018-06-15T22:09:48.336Z,95.90
2018-06-15T22:12:16.524Z,96.30
2018-06-15T22:17:12.705Z,96.00
2018-06-15T22:19:40.879Z,96.10
2018-06-15T22:22:09.052Z,96.30
2018-06-15T22:24:37.336Z,96.40
2018-06-15T22:27:05.537Z,96.80
2018-06-15T22:29:33.708Z,96.90
2018-06-15T22:32:01.909Z,97.00
2018-06-15T22:34:30.068Z,97.30
2018-06-15T22:36:58.251Z,97.30
2018-06-15T22:39:26.425Z,97.30
2018-06-15T22:41:54.604Z,97.40
2018-06-15T22:44:22.781Z,97.50
2018-06-15T22:46:50.960Z,97.50
2018-06-15T22:49:19.144Z,97.70
2018-06-15T22:51:47.325Z,97.90
2018-06-15T22:54:15.513Z,98.30
2018-06-15T22:59:11.664Z,98.10
2018-06-15T23:01:39.837Z,98.10
2018-06-15T23:04:08.120Z,98.20
2018-06-15T23:06:36.741Z,98.20
2018-06-15T23:09:07.282Z,98.90
2018-06-15T23:11:35.459Z,98.60
2018-06-15T23:14:03.653Z,98.50
2018-06-15T23:16:31.838Z,98.50
2018-06-15T23:19:00.024Z,98.30
2018-06-15T23:21:28.222Z,98.50
2018-06-15T23:23:56.388Z,98.80
2018-06-15T23:26:24.572Z,98.70
2018-06-15T23:28:52.760Z,99.00
2018-06-15T23:31:20.952Z,99.00
2018-06-15T23:33:49.144Z,98.90
2018-06-15T23:36:17.332Z,99.00
2018-06-15T23:38:45.731Z,99.10
2018-06-15T23:41:13.917Z,99.00
2018-06-15T23:43:42.089Z,98.90
2018-06-15T23:46:10.266Z,99.00
2018-06-15T23:48:38.446Z,99.00
2018-06-15T23:51:06.628Z,99.20
2018-06-15T23:53:34.816Z,99.10
2018-06-15T23:56:03.049Z,98.90
2018-06-15T23:58:31.241Z,98.40
